Time;durP1;ratioP1;P1;durP2;ratioP2;P2;SDS_P1;SDS_P2;PMS_P1;PMS_P2;Temp;Humidity;BMP_temperature;BMP_pressure;BME280_temperature;BME280_humidity;BME280_pressure;Samples;Min_cycle;Max_cycle;Signal;HPM_P1;HPM_P2
2023/08/11 00:00:08;;;;;;;8.67;3.93;;;13.60;92.80;;;;;;4964400;28;20416;-82
2023/08/11 00:02:37;;;;;;;6.23;3.70;;;13.60;93.40;;;;;;4963957;28;20488;-80
2023/08/11 00:05:05;;;;;;;7.93;3.57;;;13.50;93.60;;;;;;4962065;28;20453;-81
2023/08/11 00:07:34;;;;;;;6.47;4.47;;;13.40;94.00;;;;;;4955755;29;20447;-80
2023/08/11 00:10:01;;;;;;;4.77;3.63;;;13.30;94.40;;;;;;4952817;29;20451;-79
2023/08/11 00:12:28;;;;;;;10.40;4.53;;;13.30;94.80;;;;;;4958401;28;20691;-80
2023/08/11 00:14:55;;;;;;;4.20;3.90;;;13.20;94.70;;;;;;4958893;29;20447;-80
2023/08/11 00:17:22;;;;;;;6.47;4.25;;;13.30;95.20;;;;;;4969377;28;20202;-80
2023/08/11 00:19:49;;;;;;;5.17;4.10;;;13.10;95.40;;;;;;4971566;28;20218;-80
2023/08/11 00:22:16;;;;;;;5.65;5.20;;;13.10;95.50;;;;;;4959882;28;21049;-80
2023/08/11 00:24:43;;;;;;;4.85;4.45;;;13.00;95.60;;;;;;4961965;28;20211;-80
2023/08/11 00:27:10;;;;;;;6.45;4.90;;;13.00;95.60;;;;;;4960709;28;20231;-79
2023/08/11 00:29:38;;;;;;;5.80;4.90;;;12.90;96.00;;;;;;4963136;28;20206;-80
2023/08/11 00:32:05;;;;;;;7.40;4.88;;;12.80;96.30;;;;;;4964885;28;20231;-80
2023/08/11 00:34:32;;;;;;;7.90;5.03;;;12.70;96.70;;;;;;4963340;28;20279;-79
2023/08/11 00:36:59;;;;;;;8.00;5.28;;;12.70;97.00;;;;;;4963560;28;20207;-80
2023/08/11 00:39:26;;;;;;;5.10;4.60;;;12.60;97.80;;;;;;4963311;28;20603;-80
2023/08/11 00:41:53;;;;;;;5.30;4.80;;;12.60;98.30;;;;;;4962296;29;20215;-82
2023/08/11 00:44:21;;;;;;;7.18;4.85;;;12.60;98.60;;;;;;4962901;28;20475;-79
2023/08/11 00:46:48;;;;;;;9.32;4.10;;;12.60;98.70;;;;;;4961584;29;20218;-80
2023/08/11 00:49:16;;;;;;;6.78;6.00;;;12.50;99.00;;;;;;4964565;28;20478;-80
2023/08/11 00:51:43;;;;;;;11.00;5.32;;;12.60;99.30;;;;;;4962162;28;20249;-80
2023/08/11 00:54:12;;;;;;;6.40;4.63;;;12.60;99.60;;;;;;4963590;28;20250;-79
2023/08/11 00:56:44;;;;;;;11.80;5.35;;;12.60;99.70;;;;;;4963191;28;20215;-82
2023/08/11 00:59:12;;;;;;;8.45;4.55;;;12.50;99.70;;;;;;4963059;28;20297;-80
2023/08/11 01:01:40;;;;;;;5.20;4.70;;;12.60;99.90;;;;;;4962891;28;20207;-79
2023/08/11 01:04:07;;;;;;;11.38;5.75;;;12.50;99.70;;;;;;4963332;28;20487;-79
2023/08/11 01:07:07;;;;;;;7.03;4.90;;;12.50;99.50;;;;;;4958097;29;20215;-79
2023/08/11 01:09:56;;;;;;;7.97;5.05;;;12.50;99.90;;;;;;4962974;28;20269;-80
2023/08/11 01:12:30;;;;;;;6.85;5.20;;;12.40;99.90;;;;;;4962864;28;20300;-80
2023/08/11 01:15:22;;;;;;;6.13;5.20;;;12.40;99.90;;;;;;4961138;28;20219;-81
2023/08/11 01:17:50;;;;;;;5.53;4.93;;;12.40;99.90;;;;;;4961417;29;20251;-81
2023/08/11 01:20:18;;;;;;;5.28;4.38;;;12.30;99.90;;;;;;4962902;28;20402;-80
2023/08/11 01:22:54;;;;;;;6.75;5.15;;;12.30;99.90;;;;;;4962836;28;20270;-81
2023/08/11 01:25:23;;;;;;;10.02;5.53;;;12.30;99.90;;;;;;4961891;29;20241;-80
2023/08/11 01:27:55;;;;;;;5.38;4.88;;;12.30;99.90;;;;;;4962378;28;20207;-80
2023/08/11 01:30:23;;;;;;;5.80;5.13;;;12.30;99.90;;;;;;4962014;28;20214;-80
2023/08/11 01:32:53;;;;;;;5.22;4.72;;;12.30;99.90;;;;;;4962139;28;20305;-79
2023/08/11 01:35:21;;;;;;;7.65;4.68;;;12.30;99.90;;;;;;4962196;28;20207;-80
2023/08/11 01:38:08;;;;;;;9.18;6.30;;;12.30;99.90;;;;;;4961373;29;20211;-79
2023/08/11 01:40:39;;;;;;;5.80;5.10;;;12.20;99.90;;;;;;4960500;28;20388;-80
2023/08/11 01:43:10;;;;;;;7.10;4.45;;;12.30;99.90;;;;;;4961687;28;20238;-79
2023/08/11 01:45:39;;;;;;;8.25;5.53;;;12.30;99.90;;;;;;4961689;28;20242;-79
2023/08/11 01:48:08;;;;;;;5.78;4.82;;;12.30;99.90;;;;;;4961155;29;20258;-79
2023/08/11 01:50:37;;;;;;;6.65;5.57;;;12.20;99.90;;;;;;4961228;28;20472;-79
2023/08/11 01:53:04;;;;;;;6.78;4.60;;;12.20;99.90;;;;;;4961279;28;20254;-80
2023/08/11 01:55:32;;;;;;;5.45;4.95;;;12.20;99.90;;;;;;4962826;28;20207;-79
2023/08/11 01:57:59;;;;;;;5.22;4.70;;;12.20;99.90;;;;;;4962060;28;20549;-81
2023/08/11 02:00:27;;;;;;;4.95;4.55;;;12.10;99.90;;;;;;4966255;28;20917;-79
2023/08/11 02:02:55;;;;;;;5.75;4.88;;;12.20;99.90;;;;;;4962645;29;20207;-81
2023/08/11 02:05:24;;;;;;;4.88;4.47;;;12.20;99.90;;;;;;4960349;29;20213;-81
2023/08/11 02:07:52;;;;;;;6.68;4.88;;;12.10;99.90;;;;;;4960904;28;20211;-79
2023/08/11 02:10:19;;;;;;;8.65;4.45;;;12.10;99.90;;;;;;4960627;28;20207;-80
2023/08/11 02:12:47;;;;;;;5.00;4.50;;;12.20;99.40;;;;;;4960345;28;20291;-80
2023/08/11 02:15:15;;;;;;;5.15;4.63;;;12.20;99.40;;;;;;4960655;28;20282;-80
2023/08/11 02:17:42;;;;;;;7.85;5.80;;;12.10;99.40;;;;;;4960543;28;20211;-81
2023/08/11 02:20:22;;;;;;;6.63;4.65;;;12.10;99.70;;;;;;4960794;28;20268;-80
2023/08/11 02:22:52;;;;;;;8.02;5.07;;;12.10;99.90;;;;;;4960354;28;20211;-80
2023/08/11 02:25:20;;;;;;;13.73;5.68;;;12.10;99.90;;;;;;4960940;28;20218;-79
2023/08/11 02:27:47;;;;;;;5.10;4.60;;;11.90;99.90;;;;;;4960192;28;20461;-79
2023/08/11 02:30:14;;;;;;;5.85;5.35;;;12.00;99.90;;;;;;4960437;28;20510;-79
2023/08/11 02:32:42;;;;;;;5.70;5.15;;;12.00;99.90;;;;;;4960851;28;20231;-79
2023/08/11 02:35:12;;;;;;;5.38;4.95;;;12.00;99.90;;;;;;4953629;29;20428;-80
2023/08/11 02:37:39;;;;;;;5.50;5.00;;;12.00;99.90;;;;;;4961964;28;20222;-79
2023/08/11 02:40:09;;;;;;;6.30;5.80;;;12.00;99.90;;;;;;4961435;28;20215;-80
2023/08/11 02:42:44;;;;;;;7.75;5.65;;;12.00;99.90;;;;;;4961812;28;20235;-79
2023/08/11 02:45:12;;;;;;;6.43;5.03;;;12.00;99.90;;;;;;4961835;28;20304;-81
2023/08/11 02:47:40;;;;;;;6.85;5.05;;;11.90;99.90;;;;;;4959808;29;20392;-80
2023/08/11 02:50:08;;;;;;;7.35;5.20;;;11.90;99.90;;;;;;4960282;28;20214;-78
2023/08/11 02:52:36;;;;;;;6.00;5.40;;;11.80;99.90;;;;;;4960784;28;20231;-79
2023/08/11 02:55:05;;;;;;;9.10;5.40;;;11.80;99.90;;;;;;4960691;28;21218;-80
2023/08/11 02:57:33;;;;;;;5.82;5.22;;;11.70;99.90;;;;;;4960713;29;20242;-80
2023/08/11 03:00:00;;;;;;;6.43;5.78;;;11.50;99.90;;;;;;4955249;28;20256;-79
2023/08/11 03:02:27;;;;;;;5.75;5.25;;;11.60;99.90;;;;;;4967151;28;20215;-80
2023/08/11 03:04:56;;;;;;;9.18;5.70;;;11.70;99.90;;;;;;4970126;28;20218;-79
2023/08/11 03:07:23;;;;;;;6.60;6.00;;;11.60;99.90;;;;;;4979682;28;20215;-81
2023/08/11 03:09:50;;;;;;;7.30;6.30;;;11.60;99.90;;;;;;4977992;28;20215;-78
2023/08/11 03:12:17;;;;;;;5.45;4.95;;;11.50;99.90;;;;;;4976713;28;20206;-79
2023/08/11 03:14:44;;;;;;;7.25;6.47;;;11.60;99.90;;;;;;4964740;28;20222;-79
2023/08/11 03:17:13;;;;;;;9.05;5.85;;;11.50;99.90;;;;;;4959673;28;20274;-79
2023/08/11 03:19:40;;;;;;;8.55;6.55;;;11.50;99.90;;;;;;4959900;28;20207;-80
2023/08/11 03:22:08;;;;;;;6.38;5.63;;;11.40;99.90;;;;;;4959674;28;20207;-80
2023/08/11 03:24:35;;;;;;;6.03;5.63;;;11.40;99.90;;;;;;4960803;28;20326;-80
2023/08/11 03:27:02;;;;;;;6.40;5.80;;;11.30;99.90;;;;;;4960818;29;20527;-78
2023/08/11 03:29:30;;;;;;;8.15;7.38;;;11.30;99.90;;;;;;4953033;28;20283;-80
2023/08/11 03:31:57;;;;;;;6.78;5.78;;;11.30;99.90;;;;;;4957857;29;20241;-79
2023/08/11 03:34:24;;;;;;;8.93;6.75;;;11.30;99.90;;;;;;4959221;28;20226;-79
2023/08/11 03:36:51;;;;;;;8.27;6.25;;;11.20;99.90;;;;;;4959605;28;20778;-79
2023/08/11 03:39:19;;;;;;;9.80;7.47;;;11.30;99.90;;;;;;4958290;28;20324;-79
2023/08/11 03:41:48;;;;;;;10.30;8.15;;;11.20;99.90;;;;;;4956659;29;20246;-81
2023/08/11 03:44:16;;;;;;;8.80;7.00;;;11.40;99.90;;;;;;4952241;29;20239;-80
2023/08/11 03:46:43;;;;;;;8.23;7.43;;;11.40;99.90;;;;;;4960239;28;20207;-79
2023/08/11 03:49:10;;;;;;;7.28;6.57;;;11.40;99.90;;;;;;4959213;28;20603;-79
2023/08/11 03:51:36;;;;;;;10.07;7.55;;;11.40;99.90;;;;;;4959678;28;20199;-79
2023/08/11 03:54:04;;;;;;;7.97;7.25;;;11.30;99.90;;;;;;4959080;28;20234;-79
2023/08/11 03:56:31;;;;;;;6.95;6.45;;;11.30;99.90;;;;;;4959588;28;20239;-78
2023/08/11 03:58:58;;;;;;;11.93;7.47;;;11.30;99.90;;;;;;4959610;28;20250;-79
2023/08/11 04:01:25;;;;;;;7.90;7.10;;;11.30;99.90;;;;;;4958372;29;20526;-79
2023/08/11 04:03:52;;;;;;;12.07;7.53;;;11.40;99.90;;;;;;4958272;28;20230;-80
2023/08/11 04:06:19;;;;;;;7.95;6.72;;;11.40;99.90;;;;;;4958272;29;20274;-79
2023/08/11 04:08:46;;;;;;;7.47;6.78;;;11.50;99.90;;;;;;4959523;28;20235;-80
2023/08/11 04:11:14;;;;;;;10.23;8.10;;;11.50;99.90;;;;;;4959437;28;20214;-79
2023/08/11 04:13:42;;;;;;;12.15;7.05;;;11.60;99.90;;;;;;4958543;29;20235;-79
2023/08/11 04:16:09;;;;;;;10.07;8.25;;;11.70;99.90;;;;;;4959421;29;20275;-80
2023/08/11 04:18:36;;;;;;;9.90;7.25;;;11.80;99.90;;;;;;4959540;28;20227;-79
2023/08/11 04:21:05;;;;;;;8.13;7.32;;;12.10;99.90;;;;;;4959581;28;20215;-79
2023/08/11 04:23:32;;;;;;;9.68;7.55;;;12.10;99.90;;;;;;4959636;28;20211;-80
2023/08/11 04:26:00;;;;;;;7.97;7.13;;;12.40;99.90;;;;;;4959674;28;20199;-80
2023/08/11 04:28:27;;;;;;;8.80;6.40;;;12.60;99.90;;;;;;4955688;28;20261;-80
2023/08/11 04:30:55;;;;;;;9.45;7.03;;;12.90;99.90;;;;;;4959677;28;20473;-79
2023/08/11 04:33:22;;;;;;;13.05;7.63;;;13.10;99.90;;;;;;4958005;28;20223;-78
2023/08/11 04:35:50;;;;;;;10.23;6.70;;;13.40;99.80;;;;;;4959624;28;20462;-79
2023/08/11 04:38:17;;;;;;;7.13;5.83;;;13.60;98.90;;;;;;4959121;28;20513;-79
2023/08/11 04:40:48;;;;;;;6.50;5.73;;;13.70;98.50;;;;;;4959092;28;20473;-79
2023/08/11 04:43:15;;;;;;;13.50;6.83;;;13.80;98.20;;;;;;4958976;28;20448;-80
2023/08/11 04:45:43;;;;;;;6.50;5.63;;;13.90;98.10;;;;;;4958930;28;20445;-80
2023/08/11 04:48:10;;;;;;;14.00;7.80;;;13.90;97.00;;;;;;4958838;28;20423;-79
2023/08/11 04:50:37;;;;;;;10.93;9.83;;;14.00;96.80;;;;;;4959267;28;20451;-80
2023/08/11 04:53:04;;;;;;;9.87;7.87;;;14.20;96.30;;;;;;4959986;28;20481;-79
2023/08/11 04:55:31;;;;;;;9.60;6.70;;;14.30;96.30;;;;;;4960237;28;20484;-80
2023/08/11 04:57:59;;;;;;;6.97;4.40;;;14.50;95.30;;;;;;4959657;29;20485;-81
2023/08/11 05:00:27;;;;;;;6.00;5.27;;;14.60;94.40;;;;;;4962235;28;20765;-81
2023/08/11 05:02:54;;;;;;;8.43;5.17;;;14.70;93.60;;;;;;4961850;28;20431;-82
2023/08/11 05:05:21;;;;;;;6.30;5.30;;;14.80;93.40;;;;;;4954998;29;20441;-81
2023/08/11 05:07:50;;;;;;;5.17;4.67;;;15.00;93.40;;;;;;4959162;29;20415;-81
2023/08/11 05:10:17;;;;;;;5.17;4.67;;;15.00;91.90;;;;;;4958844;28;20427;-81
2023/08/11 05:12:48;;;;;;;11.53;5.07;;;15.10;92.00;;;;;;4960467;29;20478;-82
2023/08/11 05:15:17;;;;;;;8.33;4.97;;;15.30;91.80;;;;;;4958741;28;20448;-81
2023/08/11 05:17:45;;;;;;;6.57;5.20;;;15.20;93.40;;;;;;4962865;28;20522;-81
2023/08/11 05:20:15;;;;;;;7.67;5.63;;;15.20;93.50;;;;;;4957509;28;20450;-81
2023/08/11 05:22:43;;;;;;;6.50;4.60;;;15.00;93.40;;;;;;4963408;28;20451;-82
2023/08/11 05:25:10;;;;;;;9.97;5.87;;;14.90;93.40;;;;;;4956272;28;20468;-81
2023/08/11 05:27:38;;;;;;;11.53;7.13;;;15.00;93.10;;;;;;4963271;28;20644;-81
2023/08/11 05:30:08;;;;;;;17.17;6.17;;;15.00;92.90;;;;;;4967419;28;20517;-81
2023/08/11 05:32:36;;;;;;;5.77;4.70;;;15.20;92.40;;;;;;4978407;28;20461;-81
2023/08/11 05:35:03;;;;;;;8.00;4.80;;;15.50;92.60;;;;;;4965656;28;20548;-82
2023/08/11 05:37:38;;;;;;;9.70;5.87;;;15.70;90.30;;;;;;4965792;28;20451;-83
2023/08/11 05:40:09;;;;;;;6.03;5.07;;;15.90;90.40;;;;;;4967120;28;20408;-83
2023/08/11 05:42:37;;;;;;;6.60;4.90;;;16.00;89.60;;;;;;4958110;28;20438;-81
2023/08/11 05:45:08;;;;;;;12.10;6.53;;;16.20;88.70;;;;;;4956735;29;20517;-81
2023/08/11 05:47:36;;;;;;;5.03;4.40;;;16.20;89.50;;;;;;4966698;28;20612;-82
2023/08/11 05:50:07;;;;;;;15.20;5.80;;;16.00;89.20;;;;;;4966318;28;20814;-87
2023/08/11 05:52:38;;;;;;;6.33;4.70;;;16.30;89.70;;;;;;4963226;28;20524;-83
2023/08/11 05:55:06;;;;;;;5.50;5.00;;;16.60;86.70;;;;;;4965921;28;20496;-82
2023/08/11 05:57:42;;;;;;;6.83;4.73;;;16.50;85.30;;;;;;4964190;28;20436;-83
2023/08/11 06:00:17;;;;;;;8.17;4.47;;;16.70;86.20;;;;;;4962446;28;20434;-83
2023/08/11 06:02:49;;;;;;;6.90;4.10;;;16.80;85.90;;;;;;4969815;28;20456;-86
2023/08/11 06:05:26;;;;;;;;;;;;;;;;;;;;;
2023/08/11 06:21:29;;;;;;;7.20;4.93;;;18.10;78.70;;;;;;5591565;23;20464;-86
2023/08/11 06:32:25;;;;;;;7.50;5.00;;;19.00;73.50;;;;;;5685447;23;20762;-83
2023/08/11 06:34:52;;;;;;;6.60;4.50;;;19.00;72.80;;;;;;5110754;23;20464;-88
2023/08/11 06:37:19;;;;;;;5.30;3.90;;;19.20;74.30;;;;;;4944014;29;20468;-82
2023/08/11 06:39:45;;;;;;;5.20;4.10;;;19.50;70.80;;;;;;4941868;29;20438;-84
2023/08/11 06:42:12;;;;;;;6.27;3.90;;;19.60;69.00;;;;;;4944093;29;20438;-85
2023/08/11 06:44:39;;;;;;;8.03;4.40;;;19.80;68.30;;;;;;4937305;29;20564;-86
2023/08/11 06:47:07;;;;;;;7.57;4.00;;;20.00;69.10;;;;;;4948212;29;20433;-86
2023/08/11 06:49:34;;;;;;;3.83;3.50;;;20.60;63.20;;;;;;4941704;29;20444;-86
2023/08/11 06:52:01;;;;;;;5.10;4.10;;;21.20;61.30;;;;;;4936595;29;20429;-81
2023/08/11 06:54:28;;;;;;;7.80;4.27;;;21.70;59.50;;;;;;4943274;29;20550;-84
2023/08/11 06:56:55;;;;;;;8.80;4.10;;;21.50;57.90;;;;;;4930419;29;20481;-86
2023/08/11 06:59:22;;;;;;;4.80;4.30;;;21.80;57.30;;;;;;4926859;29;20447;-84
2023/08/11 07:01:49;;;;;;;4.67;3.50;;;21.80;56.80;;;;;;4934618;29;20431;-83
2023/08/11 07:04:16;;;;;;;5.57;3.70;;;22.30;56.80;;;;;;4939843;29;20481;-87
2023/08/11 07:06:43;;;;;;;5.57;4.20;;;22.90;54.90;;;;;;4932910;29;20454;-85
2023/08/11 07:09:10;;;;;;;4.43;4.03;;;23.20;53.00;;;;;;4999896;23;20727;-84
2023/08/11 07:11:37;;;;;;;4.10;3.80;;;23.80;52.90;;;;;;4984887;28;20483;-84
2023/08/11 07:14:04;;;;;;;6.90;3.77;;;24.60;50.00;;;;;;4979998;28;20495;-83
2023/08/11 07:16:31;;;;;;;6.90;4.53;;;24.80;48.60;;;;;;4978212;28;20483;-81
2023/08/11 07:18:59;;;;;;;4.90;3.63;;;25.30;47.90;;;;;;4976268;28;21126;-80
2023/08/11 07:21:25;;;;;;;5.60;3.57;;;25.20;47.80;;;;;;4979039;28;20519;-85
2023/08/11 07:23:53;;;;;;;5.80;4.37;;;24.90;48.10;;;;;;4980671;28;20460;-80
2023/08/11 07:26:20;;;;;;;4.43;4.03;;;24.90;49.10;;;;;;4995636;28;20433;-81
2023/08/11 07:28:47;;;;;;;4.23;3.83;;;25.30;47.50;;;;;;4976693;28;20942;-84
2023/08/11 07:31:17;;;;;;;8.63;3.80;;;25.70;45.00;;;;;;4979153;28;20489;-80
2023/08/11 07:33:44;;;;;;;7.33;4.43;;;25.60;44.90;;;;;;4979234;28;20480;-85
2023/08/11 07:36:12;;;;;;;4.33;3.90;;;25.90;45.50;;;;;;4978293;28;20449;-81
2023/08/11 07:38:39;;;;;;;6.03;3.70;;;25.90;45.00;;;;;;4975875;28;20456;-83
2023/08/11 07:41:06;;;;;;;7.73;4.40;;;26.20;45.60;;;;;;4977546;28;20459;-83
2023/08/11 07:43:33;;;;;;;4.73;3.63;;;26.20;44.20;;;;;;4977960;28;20648;-82
2023/08/11 07:46:00;;;;;;;7.27;3.70;;;26.20;43.60;;;;;;4978392;28;20452;-83
2023/08/11 07:48:27;;;;;;;3.57;3.30;;;27.20;43.30;;;;;;4979164;28;20511;-81
2023/08/11 07:50:54;;;;;;;5.93;3.80;;;28.00;40.40;;;;;;4977716;28;20444;-82
2023/08/11 07:53:21;;;;;;;4.97;3.83;;;28.60;38.90;;;;;;4977457;28;20472;-87
2023/08/11 07:55:49;;;;;;;7.47;3.97;;;29.00;39.50;;;;;;4972402;28;20457;-86
2023/08/11 07:58:16;;;;;;;5.80;4.37;;;29.50;37.40;;;;;;4975926;28;21566;-85
2023/08/11 08:00:42;;;;;;;4.67;3.53;;;29.90;37.70;;;;;;4978747;28;20521;-82
2023/08/11 08:03:09;;;;;;;3.70;3.40;;;30.70;37.80;;;;;;4978608;28;20455;-84
2023/08/11 08:05:37;;;;;;;4.83;3.50;;;30.20;36.00;;;;;;4978107;28;20444;-85
2023/08/11 08:08:03;;;;;;;3.77;3.47;;;30.40;35.00;;;;;;4978102;28;20476;-85
2023/08/11 08:10:30;;;;;;;4.30;3.90;;;30.60;35.60;;;;;;4978864;28;20440;-85
2023/08/11 08:12:58;;;;;;;4.40;4.10;;;30.90;34.80;;;;;;4978248;28;20452;-83
2023/08/11 08:15:28;;;;;;;7.63;3.77;;;31.30;35.10;;;;;;4978068;28;20491;-84
2023/08/11 08:17:55;;;;;;;5.70;3.67;;;31.10;33.40;;;;;;4977943;28;20468;-83
2023/08/11 08:20:22;;;;;;;4.83;3.97;;;31.20;33.70;;;;;;4977114;28;20444;-82
2023/08/11 08:22:49;;;;;;;4.43;4.13;;;31.30;33.30;;;;;;4977642;28;20681;-84
2023/08/11 08:25:16;;;;;;;4.40;4.00;;;31.60;33.70;;;;;;4979859;28;20900;-82
2023/08/11 08:27:45;;;;;;;7.83;4.23;;;31.90;35.60;;;;;;4980258;28;20444;-84
2023/08/11 08:30:12;;;;;;;4.30;3.90;;;31.50;35.20;;;;;;4978360;28;20448;-81
2023/08/11 08:32:40;;;;;;;4.37;4.00;;;31.30;34.50;;;;;;4978363;28;20452;-84
2023/08/11 08:35:09;;;;;;;3.80;3.50;;;31.40;33.90;;;;;;4978597;28;20484;-83
2023/08/11 08:37:36;;;;;;;4.90;3.97;;;31.30;34.40;;;;;;4978472;28;20473;-82
2023/08/11 08:40:04;;;;;;;7.80;4.70;;;31.50;35.10;;;;;;4978958;28;20507;-86
2023/08/11 08:42:31;;;;;;;8.33;4.10;;;31.90;36.30;;;;;;4977489;28;20444;-84
2023/08/11 08:45:00;;;;;;;4.10;3.80;;;31.20;34.90;;;;;;4977859;28;20452;-80
2023/08/11 08:47:27;;;;;;;6.30;3.97;;;30.90;34.90;;;;;;4976684;28;20512;-85
2023/08/11 08:50:07;;;;;;;6.80;4.10;;;31.00;35.80;;;;;;4985706;28;20504;-86
2023/08/11 08:52:43;;;;;;;4.70;4.30;;;31.40;33.80;;;;;;5257897;23;20548;-82
2023/08/11 08:55:11;;;;;;;9.07;3.83;;;31.80;32.70;;;;;;4953607;28;20547;-84
2023/08/11 08:57:40;;;;;;;7.87;4.43;;;30.60;34.20;;;;;;4960264;28;20505;-81
2023/08/11 09:00:08;;;;;;;7.73;3.70;;;30.60;35.20;;;;;;4969574;28;20777;-83
2023/08/11 09:02:36;;;;;;;3.53;3.33;;;30.90;35.50;;;;;;4962119;29;20509;-89
2023/08/11 09:05:03;;;;;;;6.33;3.77;;;31.70;33.80;;;;;;4954152;28;20452;-83
2023/08/11 09:07:30;;;;;;;5.47;3.60;;;32.10;33.50;;;;;;4966152;28;20464;-81
2023/08/11 09:09:57;;;;;;;4.27;3.87;;;31.60;33.70;;;;;;4956600;28;20607;-83
2023/08/11 09:12:27;;;;;;;4.20;3.80;;;31.50;34.40;;;;;;4950247;29;20576;-84
2023/08/11 09:14:54;;;;;;;6.27;3.80;;;31.50;35.10;;;;;;4953677;29;20488;-82
2023/08/11 09:17:21;;;;;;;4.40;3.80;;;31.70;34.40;;;;;;4959577;28;20445;-84
2023/08/11 09:19:52;;;;;;;9.43;4.83;;;31.80;34.50;;;;;;4956582;28;20450;-83
2023/08/11 09:22:24;;;;;;;5.60;4.63;;;31.80;34.20;;;;;;4953799;28;20476;-83
2023/08/11 09:24:52;;;;;;;7.47;3.83;;;31.90;34.10;;;;;;4961795;28;20456;-83
2023/08/11 09:27:20;;;;;;;6.63;4.30;;;31.90;34.90;;;;;;4965011;28;20473;-79
2023/08/11 09:29:49;;;;;;;4.33;3.93;;;31.70;36.10;;;;;;4962932;29;20468;-85
2023/08/11 09:32:16;;;;;;;8.40;4.30;;;30.10;38.00;;;;;;4957969;29;20480;-86
2023/08/11 09:34:43;;;;;;;4.63;4.20;;;29.90;38.70;;;;;;4962320;28;20517;-82
2023/08/11 09:37:11;;;;;;;5.27;3.80;;;29.60;38.40;;;;;;4956977;29;20500;-80
2023/08/11 09:39:38;;;;;;;7.93;4.23;;;29.10;39.10;;;;;;4959255;28;20449;-82
2023/08/11 09:42:08;;;;;;;4.60;3.87;;;28.60;41.90;;;;;;4959585;28;20453;-81
2023/08/11 09:44:37;;;;;;;5.83;3.83;;;28.40;41.80;;;;;;4949679;28;20446;-83
2023/08/11 09:47:04;;;;;;;5.60;4.00;;;28.40;41.30;;;;;;4949590;28;20517;-81
2023/08/11 09:49:46;;;;;;;6.00;4.00;;;28.20;41.90;;;;;;4949724;29;20667;-84
2023/08/11 09:52:15;;;;;;;5.40;3.80;;;27.90;41.20;;;;;;4953055;29;20517;-82
2023/08/11 09:54:42;;;;;;;5.93;4.77;;;27.80;42.10;;;;;;4952350;28;20509;-82
2023/08/11 09:57:11;;;;;;;4.20;3.80;;;27.70;40.70;;;;;;4953828;28;20572;-81
2023/08/11 09:59:39;;;;;;;3.63;3.33;;;27.50;42.20;;;;;;4947180;28;20497;-83
2023/08/11 10:02:12;;;;;;;5.17;3.30;;;27.50;40.80;;;;;;4958389;28;20478;-82
2023/08/11 10:04:44;;;;;;;3.67;3.30;;;27.10;41.00;;;;;;4967330;28;20419;-81
2023/08/11 10:07:14;;;;;;;3.90;3.37;;;27.20;41.70;;;;;;4968663;28;20443;-83
2023/08/11 10:09:43;;;;;;;3.43;3.10;;;26.90;41.20;;;;;;4954611;28;20442;-85
2023/08/11 10:12:11;;;;;;;4.10;3.80;;;26.80;43.20;;;;;;4955700;28;20450;-82
2023/08/11 10:14:40;;;;;;;5.47;4.03;;;27.20;43.40;;;;;;4957617;28;20508;-81
2023/08/11 10:17:09;;;;;;;3.67;3.37;;;27.20;42.70;;;;;;4956879;29;20457;-81
2023/08/11 10:19:36;;;;;;;4.90;3.53;;;27.50;43.50;;;;;;4953190;28;20451;-88
2023/08/11 10:22:04;;;;;;;4.70;3.63;;;27.40;43.50;;;;;;4962792;28;20511;-83
2023/08/11 10:24:32;;;;;;;5.20;4.00;;;27.20;43.30;;;;;;4956920;28;20830;-82
2023/08/11 10:26:59;;;;;;;3.90;3.40;;;26.90;41.30;;;;;;4957870;28;20481;-82
2023/08/11 10:29:28;;;;;;;3.90;3.53;;;26.90;39.70;;;;;;4948349;28;20453;-83
2023/08/11 10:31:58;;;;;;;5.37;3.60;;;26.70;39.80;;;;;;4950428;28;20865;-80
2023/08/11 10:34:26;;;;;;;4.57;4.17;;;26.60;40.20;;;;;;4952381;29;21117;-84
2023/08/11 10:36:55;;;;;;;3.73;3.53;;;26.50;41.60;;;;;;4944357;29;20655;-82
2023/08/11 10:39:23;;;;;;;3.50;3.20;;;26.50;43.10;;;;;;4963374;29;20444;-80
2023/08/11 10:41:51;;;;;;;3.90;3.60;;;26.50;42.40;;;;;;4977079;28;20404;-81
2023/08/11 10:44:19;;;;;;;5.50;5.10;;;26.20;42.00;;;;;;4956264;28;20433;-85
2023/08/11 10:46:50;;;;;;;4.73;4.33;;;26.20;42.90;;;;;;4962724;29;20420;-86
2023/08/11 10:49:33;;;;;;;9.33;4.60;;;26.40;42.60;;;;;;4966198;29;20420;-83
2023/08/11 10:52:02;;;;;;;3.80;3.50;;;26.40;42.80;;;;;;4951810;28;20453;-84
2023/08/11 10:54:32;;;;;;;4.67;3.80;;;26.50;43.10;;;;;;4954501;29;20489;-84
2023/08/11 10:57:01;;;;;;;4.03;3.50;;;26.80;43.50;;;;;;4953068;29;20481;-82
2023/08/11 10:59:30;;;;;;;7.07;3.27;;;26.90;42.40;;;;;;4956243;28;20520;-82
2023/08/11 11:01:59;;;;;;;4.10;3.80;;;26.90;43.40;;;;;;4950022;28;20456;-84
2023/08/11 11:04:29;;;;;;;5.97;3.83;;;27.00;43.60;;;;;;4958571;28;20431;-81
2023/08/11 11:06:58;;;;;;;16.10;8.27;;;27.30;41.90;;;;;;4976764;28;20452;-83
2023/08/11 11:09:27;;;;;;;5.73;4.27;;;27.40;40.90;;;;;;4960035;28;20477;-81
2023/08/11 11:11:56;;;;;;;4.30;3.97;;;27.20;41.30;;;;;;4962269;28;20500;-83
2023/08/11 11:14:24;;;;;;;4.60;4.20;;;27.20;43.00;;;;;;4953026;28;20542;-86
2023/08/11 11:16:58;;;;;;;5.93;5.30;;;27.40;42.10;;;;;;4956546;28;20464;-84
2023/08/11 11:19:27;;;;;;;6.13;3.70;;;27.50;41.10;;;;;;4951456;29;20951;-84
2023/08/11 11:21:56;;;;;;;10.10;3.50;;;27.70;40.90;;;;;;4951342;29;20454;-81
2023/08/11 11:24:24;;;;;;;4.40;4.00;;;27.50;41.40;;;;;;4960870;28;20445;-83
2023/08/11 11:26:51;;;;;;;4.83;4.30;;;27.80;41.30;;;;;;4958354;28;20481;-83
2023/08/11 11:29:23;;;;;;;7.30;3.43;;;27.60;41.40;;;;;;4953032;29;20437;-81
2023/08/11 11:31:51;;;;;;;4.77;4.37;;;27.50;41.70;;;;;;4961243;28;20452;-82
2023/08/11 11:34:21;;;;;;;7.23;3.80;;;27.80;41.90;;;;;;4963975;29;20445;-80
2023/08/11 11:36:48;;;;;;;3.47;3.17;;;28.00;43.10;;;;;;4963166;28;20462;-80
2023/08/11 11:39:15;;;;;;;3.67;3.40;;;28.40;39.90;;;;;;4962657;28;20517;-83
2023/08/11 11:41:42;;;;;;;5.23;3.80;;;28.40;40.10;;;;;;4955542;28;21002;-85
2023/08/11 11:44:09;;;;;;;6.03;3.67;;;28.50;39.60;;;;;;4955413;29;20513;-83
2023/08/11 11:46:37;;;;;;;3.57;3.23;;;28.20;40.70;;;;;;4948593;28;20869;-86
2023/08/11 11:49:04;;;;;;;8.60;4.00;;;28.00;40.50;;;;;;4955093;28;20722;-83
2023/08/11 11:51:49;;;;;;;6.27;4.27;;;27.40;41.30;;;;;;4951665;29;20468;-82
2023/08/11 11:54:16;;;;;;;4.60;4.07;;;27.30;41.70;;;;;;4954166;28;20548;-83
2023/08/11 11:56:44;;;;;;;3.97;3.63;;;27.10;42.40;;;;;;4964251;28;20441;-86
2023/08/11 11:59:28;;;;;;;6.40;4.20;;;27.00;43.10;;;;;;4964382;28;20793;-81
2023/08/11 12:02:02;;;;;;;5.73;3.40;;;27.10;42.80;;;;;;4964657;28;20641;-83
2023/08/11 12:04:29;;;;;;;5.57;4.37;;;27.30;43.30;;;;;;4962573;28;20468;-83
2023/08/11 12:06:57;;;;;;;6.30;4.00;;;27.30;43.40;;;;;;4960123;28;20475;-86
2023/08/11 12:09:24;;;;;;;4.50;4.10;;;27.20;43.30;;;;;;4959322;28;20553;-83
2023/08/11 12:11:54;;;;;;;4.83;3.73;;;27.30;43.20;;;;;;4952988;28;21013;-85
2023/08/11 12:14:25;;;;;;;4.10;3.80;;;27.40;42.40;;;;;;4950295;28;20549;-83
2023/08/11 12:16:52;;;;;;;4.13;3.60;;;27.40;41.30;;;;;;4936354;29;20450;-83
2023/08/11 12:19:19;;;;;;;4.77;3.30;;;27.40;41.40;;;;;;4953909;28;20485;-79
2023/08/11 12:21:46;;;;;;;5.50;4.00;;;27.60;42.20;;;;;;4957580;28;20500;-85
2023/08/11 12:24:16;;;;;;;4.30;3.90;;;27.90;42.00;;;;;;4960424;29;20501;-84
2023/08/11 12:26:43;;;;;;;4.27;3.87;;;28.30;42.20;;;;;;4965868;28;20480;-84
2023/08/11 12:29:10;;;;;;;5.73;3.93;;;28.50;43.00;;;;;;4959968;28;20622;-82
2023/08/11 12:31:37;;;;;;;9.63;3.30;;;28.70;40.80;;;;;;4959978;28;20472;-82
2023/08/11 12:34:06;;;;;;;3.70;3.40;;;28.30;42.20;;;;;;4949957;29;20898;-82
2023/08/11 12:36:33;;;;;;;4.07;3.37;;;28.00;43.20;;;;;;4956781;29;20536;-85
2023/08/11 12:39:00;;;;;;;7.13;3.60;;;27.70;42.30;;;;;;4964005;28;20442;-85
2023/08/11 12:41:27;;;;;;;5.90;4.27;;;26.90;44.00;;;;;;4959938;28;20509;-83
2023/08/11 12:43:54;;;;;;;4.20;3.67;;;26.60;44.50;;;;;;4966922;28;20460;-82
2023/08/11 12:46:24;;;;;;;5.53;4.20;;;26.70;44.90;;;;;;4964340;28;20488;-83
2023/08/11 12:48:51;;;;;;;5.07;4.40;;;26.90;42.10;;;;;;4971696;29;20509;-82
2023/08/11 12:51:18;;;;;;;4.23;3.93;;;27.20;41.80;;;;;;4970711;28;20781;-84
2023/08/11 12:53:47;;;;;;;6.30;4.73;;;27.20;43.40;;;;;;4965159;28;20527;-84
2023/08/11 12:56:14;;;;;;;4.90;3.70;;;27.10;43.70;;;;;;4968189;28;20460;-83
2023/08/11 12:58:42;;;;;;;4.23;3.40;;;27.40;44.00;;;;;;4964941;28;20456;-82
2023/08/11 13:01:09;;;;;;;8.03;3.80;;;27.30;41.60;;;;;;4961305;28;20441;-83
2023/08/11 13:03:36;;;;;;;5.47;3.57;;;27.20;42.80;;;;;;4962304;28;20445;-81
2023/08/11 13:06:03;;;;;;;3.70;3.40;;;27.00;44.00;;;;;;4957604;29;20450;-82
2023/08/11 13:08:30;;;;;;;4.17;3.73;;;26.90;43.70;;;;;;4953473;29;20512;-81
2023/08/11 13:10:58;;;;;;;4.10;3.70;;;26.80;43.60;;;;;;4958528;29;20449;-86
2023/08/11 13:13:25;;;;;;;8.43;4.63;;;27.00;42.70;;;;;;4958029;28;20456;-83
2023/08/11 13:15:52;;;;;;;4.27;3.87;;;26.80;43.40;;;;;;4957013;28;20704;-85